Time;durP1;ratioP1;P1;durP2;ratioP2;P2;SDS_P1;SDS_P2;PMS_P1;PMS_P2;Temp;Humidity;BMP_temperature;BMP_pressure;BME280_temperature;BME280_humidity;BME280_pressure;Samples;Min_cycle;Max_cycle;Signal;HPM_P1;HPM_P2
2022/12/28 00:01:15;;;;;;;10.75;5.40;;;;;;;3.06;84.46;99845.91;1741425;81;21474;-41
2022/12/28 00:03:42;;;;;;;10.98;5.28;;;;;;;2.92;84.79;99844.80;1741540;82;21005;-38
2022/12/28 00:06:08;;;;;;;12.58;5.50;;;;;;;2.93;84.85;99845.23;1741243;82;21000;-40
2022/12/28 00:08:34;;;;;;;14.13;5.65;;;;;;;2.94;85.00;99843.03;1741539;82;21013;-39
2022/12/28 00:11:03;;;;;;;12.37;6.05;;;;;;;2.93;84.95;99846.53;1741329;82;21001;-39
2022/12/28 00:13:31;;;;;;;14.43;5.53;;;;;;;2.91;84.79;99841.80;1741259;82;21511;-38
2022/12/28 00:15:57;;;;;;;14.90;5.78;;;;;;;2.85;84.98;99847.92;1741343;82;21568;-38
2022/12/28 00:18:24;;;;;;;11.73;5.60;;;;;;;2.85;84.97;99844.47;1741574;81;21036;-38
2022/12/28 00:21:00;;;;;;;13.80;5.80;;;;;;;2.82;84.86;99845.81;1741282;82;21546;-39
2022/12/28 00:23:27;;;;;;;12.30;5.70;;;;;;;2.74;85.06;99846.38;1741291;81;20978;-39
2022/12/28 00:25:53;;;;;;;15.08;6.12;;;;;;;2.67;85.23;99846.48;1741384;82;21005;-38
2022/12/28 00:28:19;;;;;;;14.98;5.80;;;;;;;2.63;85.19;99852.57;1741316;81;21001;-38
2022/12/28 00:30:45;;;;;;;16.20;6.15;;;;;;;2.57;85.45;99846.17;1741286;81;21499;-39
2022/12/28 00:33:11;;;;;;;18.17;6.45;;;;;;;2.55;85.50;99841.45;1741350;82;21032;-37
2022/12/28 00:35:37;;;;;;;14.23;5.72;;;;;;;2.55;85.46;99846.64;1741415;82;21005;-38
2022/12/28 00:38:03;;;;;;;12.28;5.95;;;;;;;2.51;85.66;99843.67;1741375;82;21459;-41
2022/12/28 00:40:29;;;;;;;13.95;6.70;;;;;;;2.49;85.64;99846.70;1741383;82;21518;-38
2022/12/28 00:42:55;;;;;;;15.25;6.05;;;;;;;2.47;85.75;99843.27;1741291;82;21490;-40
2022/12/28 00:45:20;;;;;;;15.75;6.33;;;;;;;2.43;85.86;99853.28;1741235;81;21033;-37
2022/12/28 00:47:46;;;;;;;16.87;7.08;;;;;;;2.41;85.82;99852.00;1741156;81;21021;-38
2022/12/28 00:50:12;;;;;;;15.68;6.50;;;;;;;2.39;86.04;99855.52;1741306;82;20973;-41
2022/12/28 00:52:38;;;;;;;14.53;7.20;;;;;;;2.36;86.22;99854.24;1741254;82;21001;-39
2022/12/28 00:55:04;;;;;;;16.05;6.85;;;;;;;2.35;86.33;99862.89;1741272;81;21048;-37
2022/12/28 00:57:30;;;;;;;13.43;6.45;;;;;;;2.36;86.53;99857.69;1741241;82;21061;-40
2022/12/28 00:59:56;;;;;;;17.87;6.97;;;;;;;2.29;86.55;99856.92;1741258;81;21205;-40
2022/12/28 01:02:22;;;;;;;18.42;7.85;;;;;;;2.29;86.60;99854.75;1741321;82;21045;-41
2022/12/28 01:04:48;;;;;;;16.90;7.00;;;;;;;2.29;86.81;99858.64;1741221;82;21372;-40
2022/12/28 01:07:14;;;;;;;20.52;7.85;;;;;;;2.25;86.66;99855.23;1741310;82;21511;-39
2022/12/28 01:09:40;;;;;;;16.97;7.35;;;;;;;2.17;87.16;99855.77;1721425;82;21015;-41
2022/12/28 01:12:06;;;;;;;19.42;8.50;;;;;;;2.17;86.91;99838.06;1714331;83;21058;-37
2022/12/28 01:14:31;;;;;;;17.02;8.15;;;;;;;2.17;86.91;99838.06;1716242;83;20981;-39
2022/12/28 01:16:57;;;;;;;18.42;8.53;;;;;;;2.20;87.03;99836.70;1716274;83;20970;-41
2022/12/28 01:19:24;;;;;;;18.20;8.25;;;;;;;2.17;86.93;99842.80;1716305;83;21029;-39
2022/12/28 01:21:51;;;;;;;21.40;8.68;;;;;;;2.13;87.16;99835.94;1716276;83;21020;-38
2022/12/28 01:24:17;;;;;;;25.60;9.55;;;;;;;2.11;87.37;99832.48;1716407;83;21040;-44
2022/12/28 01:26:43;;;;;;;23.77;8.83;;;;;;;2.06;87.64;99826.06;1716277;83;20985;-41
2022/12/28 01:29:09;;;;;;;20.80;8.40;;;;;;;2.01;87.78;99827.84;1716276;83;21008;-38
2022/12/28 01:31:35;;;;;;;21.02;9.20;;;;;;;2.02;87.88;99829.99;1716388;83;20997;-37
2022/12/28 01:34:01;;;;;;;21.37;9.10;;;;;;;2.11;87.62;99831.18;1716474;83;21021;-37
2022/12/28 01:36:30;;;;;;;29.60;9.65;;;;;;;2.15;87.47;99827.70;1714441;83;21470;-37
2022/12/28 01:38:59;;;;;;;19.17;8.83;;;;;;;2.15;87.80;99828.11;1697703;84;21012;-38
2022/12/28 01:41:27;;;;;;;23.12;9.90;;;;;;;2.18;87.72;99821.15;1697632;84;21514;-41
2022/12/28 01:43:59;;;;;;;20.08;9.60;;;;;;;2.23;87.75;99825.84;1697861;84;20977;-40
2022/12/28 01:46:48;;;;;;;19.98;8.38;;;;;;;2.28;87.38;99811.08;1697593;84;21064;-41
2022/12/28 01:49:38;;;;;;;20.30;9.60;;;;;;;2.33;87.38;99807.55;1728732;81;21107;-38
2022/12/28 01:52:30;;;;;;;19.07;9.25;;;;;;;2.35;87.17;99804.50;1730311;83;21569;-37
2022/12/28 01:55:16;;;;;;;17.55;8.73;;;;;;;2.27;87.23;99788.62;1731318;83;21466;-41
2022/12/28 01:57:47;;;;;;;16.67;9.33;;;;;;;2.31;86.95;99789.44;1731295;83;21024;-37
2022/12/28 02:00:15;;;;;;;23.52;10.43;;;;;;;2.25;87.20;99789.50;1732224;81;20997;-40
2022/12/28 02:02:47;;;;;;;17.60;9.45;;;;;;;2.28;86.90;99783.83;1733627;81;21016;-40
2022/12/28 02:05:15;;;;;;;25.97;10.00;;;;;;;2.22;87.26;99785.22;1733624;81;21008;-39
2022/12/28 02:08:01;;;;;;;24.85;10.48;;;;;;;2.11;87.23;99786.66;1733607;83;21059;-39
2022/12/28 02:10:27;;;;;;;21.97;9.88;;;;;;;2.10;87.41;99781.48;1718756;83;20996;-39
2022/12/28 02:12:55;;;;;;;21.57;10.63;;;;;;;2.13;87.22;99780.16;1734077;81;21032;-38
2022/12/28 02:15:21;;;;;;;21.50;10.10;;;;;;;2.09;87.18;99774.56;1733614;83;21007;-37
2022/12/28 02:17:47;;;;;;;21.37;9.75;;;;;;;2.07;87.23;99775.03;1733633;81;21072;-38
2022/12/28 02:20:13;;;;;;;20.60;9.00;;;;;;;2.04;87.55;99770.75;1733625;81;21000;-38
2022/12/28 02:23:20;;;;;;;21.97;9.65;;;;;;;2.04;87.26;99766.86;1733635;83;21003;-37
2022/12/28 02:25:58;;;;;;;17.10;9.30;;;;;;;2.01;87.44;99766.89;1733184;83;20980;-39
2022/12/28 02:28:39;;;;;;;;;;;;;;;2.00;87.57;99760.00;1735315;82;20982;-37
2022/12/28 02:31:28;;;;;;;20.08;9.18;;;;;;;2.03;87.49;99766.88;1735128;81;20100;-38
2022/12/28 02:34:00;;;;;;;21.48;9.33;;;;;;;2.00;87.34;99760.41;1733521;81;21467;-38
2022/12/28 02:36:31;;;;;;;20.97;9.33;;;;;;;2.00;87.43;99752.64;1728361;83;20992;-40
2022/12/28 02:39:20;;;;;;;19.15;9.55;;;;;;;2.02;87.59;99758.66;1729207;81;20993;-37
2022/12/28 02:41:46;;;;;;;17.95;9.33;;;;;;;2.04;87.74;99761.67;1729441;81;21048;-42
2022/12/28 02:50:04;;;;;;;19.07;9.98;;;;;;;2.04;87.49;99768.61;1732877;81;20961;-38
2022/12/28 02:52:59;;;;;;;18.45;8.53;;;;;;;2.16;87.14;99766.27;1734174;81;21469;-38
2022/12/28 02:59:09;;;;;;;16.60;9.63;;;;;;;2.09;86.87;99749.92;1749042;82;21483;-42
2022/12/28 03:02:20;;;;;;;16.95;9.15;;;;;;;2.00;86.82;99750.92;1749086;82;20981;-39
2022/12/28 03:08:24;;;;;;;15.55;8.30;;;;;;;1.84;87.79;99742.92;1748096;82;21515;-40
2022/12/28 03:11:04;;;;;;;16.95;8.50;;;;;;;1.79;87.94;99736.48;1733347;82;21020;-38
2022/12/28 03:13:44;;;;;;;17.05;8.48;;;;;;;1.76;87.88;99727.88;1734336;81;21003;-37
2022/12/28 03:16:25;;;;;;;17.02;8.25;;;;;;;1.69;88.38;99732.27;1734476;82;21439;-39
2022/12/28 03:32:58;;;;;;;18.90;8.15;;;;;;;1.67;88.48;99707.69;1749199;82;20976;-39
2022/12/28 03:35:29;;;;;;;13.63;8.23;;;;;;;1.60;88.46;99702.57;1749555;82;20998;-48
2022/12/28 03:37:59;;;;;;;19.37;8.25;;;;;;;1.56;88.78;99702.20;1748483;82;21891;-38
2022/12/28 03:40:47;;;;;;;18.75;7.78;;;;;;;1.59;88.66;99701.72;1748980;82;20989;-40
2022/12/28 03:43:43;;;;;;;15.88;7.72;;;;;;;1.61;88.42;99700.41;1749200;82;21020;-37
2022/12/28 03:49:40;;;;;;;16.95;8.05;;;;;;;1.58;88.77;99690.07;1796906;79;22561;-41
2022/12/28 03:52:08;;;;;;;14.53;7.85;;;;;;;1.59;88.47;99690.50;1761830;81;21007;-38
2022/12/28 03:54:34;;;;;;;15.70;7.62;;;;;;;1.54;88.74;99695.73;1761797;80;21508;-38
2022/12/28 03:57:00;;;;;;;14.35;8.30;;;;;;;1.54;88.66;99694.43;1756727;81;21009;-36
2022/12/28 03:59:26;;;;;;;14.65;7.95;;;;;;;1.56;88.63;99695.72;1753545;82;21559;-36
2022/12/28 04:01:52;;;;;;;16.15;7.80;;;;;;;1.57;88.41;99692.26;1753442;82;21488;-38
2022/12/28 04:04:18;;;;;;;15.98;7.60;;;;;;;1.61;88.41;99684.41;1753516;81;20988;-39
2022/12/28 04:06:43;;;;;;;18.70;7.90;;;;;;;1.64;88.04;99675.30;1753424;82;20991;-38
2022/12/28 04:09:09;;;;;;;16.07;7.40;;;;;;;1.64;88.15;99673.16;1753445;82;21007;-39
2022/12/28 04:11:35;;;;;;;15.60;7.42;;;;;;;1.55;88.43;99674.13;1753455;81;21031;-36
2022/12/28 04:14:03;;;;;;;15.35;7.72;;;;;;;1.61;88.37;99673.19;1753541;82;21460;-39
2022/12/28 04:16:29;;;;;;;16.02;7.70;;;;;;;1.59;88.26;99671.91;1753439;82;20994;-40
2022/12/28 04:18:55;;;;;;;15.90;8.25;;;;;;;1.56;88.29;99664.61;1753430;82;20986;-37
2022/12/28 04:21:21;;;;;;;16.35;7.22;;;;;;;1.55;88.35;99663.77;1753474;82;21476;-41
2022/12/28 04:23:47;;;;;;;16.10;8.55;;;;;;;1.52;88.48;99671.56;1753386;82;20989;-38
2022/12/28 04:26:15;;;;;;;16.48;8.18;;;;;;;1.53;88.50;99663.77;1753514;81;21370;-39
2022/12/28 04:28:41;;;;;;;15.95;8.75;;;;;;;1.54;88.44;99662.88;1753377;82;21483;-41
2022/12/28 04:31:11;;;;;;;12.58;7.05;;;;;;;1.52;88.66;99659.45;1753736;81;21476;-38
2022/12/28 04:33:38;;;;;;;16.80;7.97;;;;;;;1.52;88.49;99654.72;1753426;82;21044;-39
2022/12/28 04:36:12;;;;;;;17.73;9.28;;;;;;;1.57;88.35;99666.34;1753544;82;21034;-38
2022/12/28 04:38:39;;;;;;;16.70;8.25;;;;;;;1.59;88.41;99662.84;1751685;82;20999;-39
2022/12/28 04:41:07;;;;;;;19.53;8.10;;;;;;;1.63;88.22;99659.77;1753759;82;21426;-40
2022/12/28 04:43:33;;;;;;;13.78;7.53;;;;;;;1.65;88.04;99651.08;1758995;81;21155;-40
2022/12/28 04:46:02;;;;;;;21.33;8.50;;;;;;;1.65;87.93;99647.19;1761723;80;21015;-37
2022/12/28 04:48:28;;;;;;;17.82;8.35;;;;;;;1.56;88.07;99648.61;1756332;81;21048;-41
2022/12/28 04:50:55;;;;;;;17.57;7.45;;;;;;;1.57;88.12;99652.93;1748677;81;21039;-40
2022/12/28 04:53:22;;;;;;;18.60;7.27;;;;;;;1.53;88.26;99653.41;1749000;82;20964;-39
2022/12/28 04:55:48;;;;;;;18.23;7.00;;;;;;;1.51;88.24;99659.05;1748754;81;20992;-40
2022/12/28 04:58:14;;;;;;;13.18;7.22;;;;;;;1.49;88.45;99654.33;1748741;81;21437;-40
2022/12/28 05:00:40;;;;;;;11.45;6.62;;;;;;;1.56;88.45;99650.36;1748245;81;21481;-37
2022/12/28 05:03:06;;;;;;;14.18;6.85;;;;;;;1.58;88.17;99652.48;1748054;81;20999;-42
2022/12/28 05:05:32;;;;;;;12.65;6.05;;;;;;;1.56;88.32;99653.80;1748138;81;20960;-39
2022/12/28 05:08:01;;;;;;;10.88;6.45;;;;;;;1.56;88.26;99649.91;1748022;82;21046;-39
2022/12/28 05:10:28;;;;;;;16.00;6.85;;;;;;;1.53;88.52;99650.81;1748069;81;20991;-37
2022/12/28 05:12:55;;;;;;;12.73;6.20;;;;;;;1.59;88.35;99648.58;1748224;82;20996;-40
2022/12/28 05:15:22;;;;;;;16.53;7.20;;;;;;;1.54;88.47;99640.84;1748377;82;20972;-40
2022/12/28 05:17:47;;;;;;;13.43;6.20;;;;;;;1.59;88.64;99638.66;1748318;81;20980;-40
2022/12/28 05:20:14;;;;;;;15.63;7.00;;;;;;;1.64;88.61;99635.13;1748073;81;21079;-39
2022/12/28 05:22:40;;;;;;;17.37;6.70;;;;;;;1.66;88.32;99637.70;1748279;81;21022;-37
2022/12/28 05:25:07;;;;;;;16.32;7.10;;;;;;;1.67;88.41;99636.80;1748080;81;21508;-36
2022/12/28 05:27:33;;;;;;;13.58;6.37;;;;;;;1.76;88.42;99638.42;1748059;81;21023;-40
2022/12/28 05:29:59;;;;;;;13.32;6.20;;;;;;;1.81;88.29;99632.73;1748038;81;20999;-40
2022/12/28 05:32:24;;;;;;;10.90;6.05;;;;;;;1.82;87.96;99630.13;1748040;82;20995;-39
2022/12/28 05:34:50;;;;;;;11.38;6.25;;;;;;;1.85;88.15;99631.80;1748099;81;21000;-37
2022/12/28 05:37:16;;;;;;;9.40;6.12;;;;;;;1.84;87.72;99626.22;1748133;81;21039;-40
2022/12/28 05:39:41;;;;;;;11.80;6.10;;;;;;;1.87;87.63;99626.16;1748174;81;20988;-40
2022/12/28 05:42:07;;;;;;;14.15;6.30;;;;;;;1.76;88.17;99612.05;1748203;81;21512;-40
2022/12/28 05:44:33;;;;;;;14.78;5.95;;;;;;;1.79;88.02;99610.71;1748134;81;21484;-40
2022/12/28 05:46:59;;;;;;;16.23;6.08;;;;;;;1.78;87.86;99614.17;1748014;81;21453;-40
2022/12/28 05:49:24;;;;;;;12.88;6.55;;;;;;;1.71;87.82;99614.72;1747930;81;20988;-39
2022/12/28 05:51:50;;;;;;;11.88;5.33;;;;;;;1.79;88.16;99606.83;1748053;81;20987;-36
2022/12/28 05:54:17;;;;;;;15.15;6.80;;;;;;;1.82;88.19;99604.61;1748039;82;20996;-40
2022/12/28 05:56:42;;;;;;;13.83;5.97;;;;;;;1.88;87.87;99602.80;1748189;82;21442;-38
2022/12/28 05:59:08;;;;;;;12.45;6.08;;;;;;;1.85;87.65;99609.31;1748084;81;20987;-42
2022/12/28 06:01:38;;;;;;;16.62;5.90;;;;;;;1.83;87.66;99607.19;1748018;81;20980;-42
2022/12/28 06:04:08;;;;;;;15.60;5.62;;;;;;;1.84;87.64;99608.91;1748067;82;21520;-40
2022/12/28 06:06:34;;;;;;;13.08;5.83;;;;;;;1.67;88.00;99606.58;1745776;82;21008;-38
2022/12/28 06:09:01;;;;;;;14.47;6.43;;;;;;;1.69;87.88;99595.73;1748298;81;20968;-41
2022/12/28 06:11:28;;;;;;;13.43;5.90;;;;;;;1.70;87.89;99601.77;1748014;81;21543;-37
2022/12/28 06:13:54;;;;;;;13.72;6.37;;;;;;;1.67;87.91;99599.22;1748177;81;20960;-39
2022/12/28 06:16:30;;;;;;;12.45;5.83;;;;;;;1.62;87.95;99593.23;1748012;82;20983;-40
2022/12/28 06:18:56;;;;;;;15.80;6.25;;;;;;;1.52;88.41;99589.92;1748090;81;21034;-39
2022/12/28 06:21:29;;;;;;;11.37;5.73;;;;;;;1.37;88.73;99594.02;1748309;81;21043;-41
2022/12/28 06:23:58;;;;;;;13.60;6.25;;;;;;;1.45;88.81;99593.02;1748044;81;21461;-38
2022/12/28 06:26:26;;;;;;;17.05;5.85;;;;;;;1.44;88.76;99594.37;1748027;82;21473;-46
2022/12/28 06:28:52;;;;;;;12.18;6.37;;;;;;;1.44;88.60;99595.66;1748003;81;20999;-38
2022/12/28 06:31:27;;;;;;;12.53;6.40;;;;;;;1.46;88.90;99593.91;1748001;82;21003;-41
2022/12/28 06:33:56;;;;;;;14.45;6.60;;;;;;;1.39;89.47;99585.79;1748063;81;20995;-41
2022/12/28 06:36:26;;;;;;;11.97;6.42;;;;;;;1.44;89.13;99586.59;1747997;82;21481;-39
2022/12/28 06:38:56;;;;;;;14.58;6.62;;;;;;;1.43;89.09;99576.64;1747421;81;21469;-39
2022/12/28 06:41:23;;;;;;;16.42;7.28;;;;;;;1.37;89.32;99576.73;1748043;82;21002;-38
2022/12/28 06:43:49;;;;;;;12.07;6.17;;;;;;;1.38;89.17;99574.99;1748263;81;21117;-38
2022/12/28 06:46:17;;;;;;;16.67;7.77;;;;;;;1.33;89.03;99571.19;1748238;81;20998;-37
2022/12/28 06:48:44;;;;;;;18.10;7.20;;;;;;;1.41;88.80;99570.62;1751729;81;21492;-39
2022/12/28 06:51:14;;;;;;;17.42;7.40;;;;;;;1.36;89.25;99560.76;1761613;81;20967;-39
2022/12/28 06:53:41;;;;;;;17.25;6.97;;;;;;;1.41;88.98;99560.27;1761201;80;20956;-40
2022/12/28 06:56:12;;;;;;;15.48;7.47;;;;;;;1.35;89.24;99551.28;1761422;81;20994;-37
2022/12/28 06:58:38;;;;;;;18.85;7.60;;;;;;;1.41;88.88;99558.12;1760631;81;21030;-38
2022/12/28 07:01:22;;;;;;;16.48;7.80;;;;;;;1.45;88.84;99558.48;1761398;81;21465;-37
2022/12/28 07:03:51;;;;;;;17.02;7.92;;;;;;;1.44;88.82;99565.41;1761359;81;21002;-38
2022/12/28 07:06:21;;;;;;;20.27;8.23;;;;;;;1.49;88.68;99559.73;1748338;81;21139;-40
2022/12/28 07:08:52;;;;;;;13.32;6.28;;;;;;;1.49;88.52;99558.85;1761377;81;21011;-40
2022/12/28 07:11:20;;;;;;;13.00;6.97;;;;;;;1.51;88.38;99554.50;1759939;81;21489;-37
2022/12/28 07:13:47;;;;;;;16.48;7.10;;;;;;;1.52;88.34;99551.89;1761371;81;21433;-39
2022/12/28 07:16:17;;;;;;;12.67;7.13;;;;;;;1.54;88.25;99546.23;1761585;81;21022;-38
2022/12/28 07:18:44;;;;;;;21.45;7.85;;;;;;;1.54;88.06;99547.98;1761230;81;21031;-37
2022/12/28 07:21:13;;;;;;;13.70;7.53;;;;;;;1.59;87.94;99542.75;1761677;81;20968;-40
2022/12/28 07:23:39;;;;;;;23.47;9.03;;;;;;;1.58;87.75;99535.84;1761332;81;21002;-38
2022/12/28 07:26:10;;;;;;;16.87;7.72;;;;;;;1.62;87.76;99536.20;1761326;81;21027;-39
2022/12/28 07:28:44;;;;;;;18.80;7.37;;;;;;;1.68;87.59;99536.13;1761354;81;21551;-40
2022/12/28 07:31:17;;;;;;;13.90;6.75;;;;;;;1.68;87.28;99529.64;1761361;81;21034;-39
2022/12/28 07:33:44;;;;;;;15.25;7.22;;;;;;;1.69;87.16;99529.63;1761419;81;20955;-38
2022/12/28 07:36:14;;;;;;;15.00;7.17;;;;;;;1.73;87.04;99527.84;1761428;81;20995;-37
2022/12/28 07:38:40;;;;;;;15.38;7.53;;;;;;;1.73;87.02;99530.44;1761456;81;20979;-38
2022/12/28 07:41:12;;;;;;;14.35;6.78;;;;;;;1.77;86.94;99515.69;1761352;81;20983;-38
2022/12/28 07:43:39;;;;;;;14.00;7.00;;;;;;;1.83;86.89;99527.25;1761389;81;21034;-42
2022/12/28 07:46:18;;;;;;;15.98;7.78;;;;;;;1.79;86.63;99518.66;1761337;81;20972;-40
2022/12/28 07:48:44;;;;;;;22.42;11.35;;;;;;;1.87;86.56;99517.23;1761178;81;21465;-39
2022/12/28 07:51:23;;;;;;;18.67;10.13;;;;;;;1.87;86.37;99518.11;1761632;81;20979;-38
2022/12/28 07:53:51;;;;;;;19.55;8.78;;;;;;;1.89;86.31;99512.45;1761337;81;21387;-37
2022/12/28 07:56:17;;;;;;;;;;;;;;;1.99;86.10;99518.79;1763992;81;21042;-40
2022/12/28 07:58:52;;;;;;;22.62;9.28;;;;;;;1.93;85.65;99515.86;1761567;81;20105;-39
2022/12/28 08:01:20;;;;;;;19.35;9.05;;;;;;;1.99;85.74;99512.30;1761368;81;20990;-39
2022/12/28 08:03:47;;;;;;;22.73;8.70;;;;;;;2.06;85.72;99512.16;1761263;81;20987;-41
2022/12/28 08:06:21;;;;;;;22.58;8.35;;;;;;;2.11;85.77;99512.06;1761287;81;21750;-38
2022/12/28 08:08:50;;;;;;;24.72;8.45;;;;;;;2.17;85.76;99513.28;1761228;81;21484;-39
2022/12/28 08:11:20;;;;;;;18.77;8.45;;;;;;;2.26;85.72;99516.16;1761271;81;21480;-37
2022/12/28 08:13:48;;;;;;;18.48;7.92;;;;;;;2.30;85.24;99508.27;1761494;81;21457;-37
2022/12/28 08:16:19;;;;;;;23.30;8.83;;;;;;;2.33;84.61;99512.99;1761327;81;21512;-39
2022/12/28 08:18:47;;;;;;;22.87;9.18;;;;;;;2.41;84.62;99500.74;1761316;81;20983;-37
2022/12/28 08:21:22;;;;;;;28.23;8.50;;;;;;;2.47;84.13;99503.21;1761259;81;21854;-37
2022/12/28 08:23:49;;;;;;;22.77;8.45;;;;;;;2.54;83.88;99502.21;1761348;81;21528;-39
2022/12/28 08:26:25;;;;;;;28.52;8.93;;;;;;;2.47;83.27;99496.72;1761355;80;21599;-37
2022/12/28 08:28:57;;;;;;;16.10;7.35;;;;;;;2.54;83.31;99494.42;1761290;81;20981;-39
2022/12/28 08:31:28;;;;;;;23.27;8.35;;;;;;;2.59;83.12;99502.98;1761324;81;20987;-38
2022/12/28 08:33:56;;;;;;;19.60;7.70;;;;;;;2.65;83.05;99499.41;1760198;81;20979;-37
2022/12/28 08:36:22;;;;;;;21.57;7.97;;;;;;;2.66;82.82;99503.28;1761512;81;21520;-38
2022/12/28 08:38:49;;;;;;;22.32;8.05;;;;;;;2.63;81.78;99497.29;1761410;81;21531;-39
2022/12/28 08:41:19;;;;;;;22.07;7.50;;;;;;;2.73;82.28;99498.83;1761731;81;20991;-36
2022/12/28 08:43:45;;;;;;;16.42;6.85;;;;;;;2.68;81.65;99500.20;1761435;81;21528;-40
2022/12/28 08:46:16;;;;;;;22.82;7.03;;;;;;;2.78;82.09;99504.77;1761636;81;21476;-39
2022/12/28 08:48:43;;;;;;;30.97;8.28;;;;;;;2.78;81.98;99516.45;1761434;80;21015;-38
2022/12/28 08:51:23;;;;;;;15.38;6.72;;;;;;;2.85;81.97;99521.09;1761478;81;20968;-38
2022/12/28 08:53:49;;;;;;;23.50;8.45;;;;;;;2.83;81.22;99526.76;1761004;80;20971;-39
2022/12/28 08:56:29;;;;;;;19.32;8.13;;;;;;;2.87;80.98;99525.80;1761424;81;20968;-37
2022/12/28 08:58:56;;;;;;;27.05;8.25;;;;;;;2.94;81.33;99527.39;1760980;80;21465;-37
2022/12/28 09:01:26;;;;;;;18.57;7.58;;;;;;;2.94;80.77;99520.90;1761653;81;20979;-41
2022/12/28 09:03:54;;;;;;;18.05;6.80;;;;;;;2.94;80.14;99529.98;1760990;81;20972;-39
2022/12/28 09:06:30;;;;;;;17.82;7.47;;;;;;;2.93;80.17;99528.72;1761464;81;21540;-39
2022/12/28 09:08:58;;;;;;;24.80;8.68;;;;;;;3.03;80.80;99523.30;1761352;81;20952;-37
2022/12/28 09:11:24;;;;;;;21.50;7.75;;;;;;;3.06;80.56;99517.20;1761518;81;21465;-38
2022/12/28 09:13:50;;;;;;;23.83;7.90;;;;;;;2.98;80.04;99513.45;1761774;81;21011;-38
2022/12/28 09:16:22;;;;;;;23.18;7.92;;;;;;;3.00;79.97;99515.59;1761520;81;21449;-40
2022/12/28 09:18:50;;;;;;;16.57;6.85;;;;;;;2.99;80.07;99516.92;1761356;81;20948;-40
2022/12/28 09:21:18;;;;;;;;;;;;;;;2.97;79.93;99509.61;1763893;81;20964;-39
2022/12/28 09:23:45;;;;;;;23.18;7.03;;;;;;;3.08;80.27;99517.57;1761480;81;20117;-37
2022/12/28 09:26:21;;;;;;;21.33;7.65;;;;;;;3.07;79.99;99519.78;1761597;81;21465;-38
2022/12/28 09:28:53;;;;;;;18.00;6.58;;;;;;;3.09;80.20;99514.52;1761526;81;20979;-38
2022/12/28 09:31:21;;;;;;;15.13;7.20;;;;;;;3.06;80.07;99511.55;1760698;81;21015;-39
2022/12/28 09:34:01;;;;;;;16.37;6.67;;;;;;;3.13;80.43;99510.11;1761421;81;20999;-37
2022/12/28 09:36:38;;;;;;;18.05;7.10;;;;;;;3.16;80.02;99512.66;1761533;81;21458;-39
2022/12/28 09:39:09;;;;;;;15.00;6.90;;;;;;;3.24;80.24;99499.06;1760580;81;20975;-38
2022/12/28 09:41:49;;;;;;;17.50;7.00;;;;;;;3.25;79.92;99486.47;1761208;81;21473;-38
2022/12/28 09:44:39;;;;;;;11.12;5.92;;;;;;;3.31;80.33;99490.25;1761419;81;20988;-39
2022/12/28 09:47:11;;;;;;;17.85;6.90;;;;;;;3.35;79.79;99486.68;1753104;80;21042;-41
2022/12/28 09:50:14;;;;;;;22.32;9.45;;;;;;;3.38;79.96;99482.69;1756977;80;20989;-39
2022/12/28 09:53:06;;;;;;;17.48;6.40;;;;;;;3.38;79.36;99479.24;1747449;81;21457;-40
2022/12/28 09:55:37;;;;;;;16.87;7.92;;;;;;;3.41;79.75;99476.58;1740269;81;21567;-38
2022/12/28 09:58:13;;;;;;;18.48;9.10;;;;;;;3.39;79.16;99467.52;1747958;81;20992;-41
2022/12/28 10:00:47;;;;;;;23.83;9.83;;;;;;;3.40;79.64;99453.64;1748044;82;21023;-40
2022/12/28 10:03:36;;;;;;;22.07;9.85;;;;;;;3.37;79.42;99442.00;1748012;81;21012;-37
2022/12/28 10:06:04;;;;;;;25.05;9.65;;;;;;;3.31;79.21;99438.68;1748101;82;20945;-41
2022/12/28 10:08:30;;;;;;;16.65;7.83;;;;;;;3.19;79.33;99429.44;1748185;81;20987;-40
2022/12/28 10:10:59;;;;;;;18.37;8.93;;;;;;;3.23;80.08;99424.58;1737421;82;21532;-36
2022/12/28 10:13:30;;;;;;;17.95;8.68;;;;;;;3.30;79.79;99415.75;1748074;81;20972;-38
2022/12/28 10:15:57;;;;;;;26.77;9.18;;;;;;;3.28;79.99;99407.59;1747890;81;20980;-41
2022/12/28 10:18:26;;;;;;;19.62;9.00;;;;;;;3.32;79.98;99406.61;1748210;82;20987;-40
2022/12/28 10:20:53;;;;;;;22.00;8.43;;;;;;;3.36;79.93;99403.89;1747963;82;20984;-38
2022/12/28 10:23:23;;;;;;;18.12;8.65;;;;;;;3.32;79.71;99398.36;1748220;81;21024;-37
2022/12/28 10:25:52;;;;;;;19.10;7.80;;;;;;;3.26;79.53;99399.82;1748138;81;20979;-40
2022/12/28 10:28:21;;;;;;;15.00;7.65;;;;;;;3.30;79.62;99391.05;1747934;81;20968;-38
2022/12/28 10:31:07;;;;;;;23.07;7.72;;;;;;;3.37;79.69;99383.97;1747988;81;21517;-38
2022/12/28 10:33:40;;;;;;;16.27;7.92;;;;;;;3.37;79.21;99387.41;1748069;81;21024;-41
2022/12/28 10:36:12;;;;;;;16.77;7.87;;;;;;;3.45;79.42;99382.86;1747982;82;21035;-38
2022/12/28 10:38:43;;;;;;;14.03;7.03;;;;;;;3.46;79.20;99380.69;1747892;81;20987;-39
2022/12/28 10:41:13;;;;;;;17.00;7.33;;;;;;;3.55;78.93;99381.36;1747145;81;21522;-39
2022/12/28 10:43:41;;;;;;;18.75;7.35;;;;;;;3.61;78.79;99382.50;1750665;80;20956;-36
2022/12/28 10:46:16;;;;;;;22.02;7.95;;;;;;;3.66;78.61;99384.54;1755164;80;21130;-38
2022/12/28 10:48:48;;;;;;;14.73;7.17;;;;;;;3.68;78.68;99377.55;1739039;81;21099;-40
2022/12/28 10:51:19;;;;;;;23.55;8.38;;;;;;;3.76;78.43;99376.88;1744913;80;21012;-39
2022/12/28 10:53:53;;;;;;;17.25;7.97;;;;;;;3.78;78.01;99371.22;1744508;82;22161;-38
2022/12/28 10:56:24;;;;;;;19.12;8.30;;;;;;;3.82;77.93;99374.14;1741527;81;21008;-37
2022/12/28 10:58:55;;;;;;;16.17;7.75;;;;;;;3.91;78.17;99363.07;1745987;82;20979;-40
2022/12/28 11:01:27;;;;;;;17.62;7.33;;;;;;;3.96;77.76;99359.45;1735781;81;20984;-39
2022/12/28 11:04:01;;;;;;;19.30;7.92;;;;;;;4.09;77.98;99370.37;1744213;81;21461;-39
2022/12/28 11:06:48;;;;;;;13.20;6.95;;;;;;;4.17;77.70;99373.63;1734566;81;20980;-39
2022/12/28 11:09:24;;;;;;;17.60;7.15;;;;;;;4.21;77.25;99360.92;1747791;81;21420;-39
2022/12/28 11:11:55;;;;;;;14.50;7.55;;;;;;;4.28;76.95;99359.01;1746479;82;21031;-39
2022/12/28 11:14:34;;;;;;;18.52;7.95;;;;;;;4.33;76.50;99341.52;1745915;81;21007;-37
2022/12/28 11:17:25;;;;;;;15.53;7.17;;;;;;;4.33;75.99;99339.34;1723759;82;20976;-39
2022/12/28 11:19:55;;;;;;;14.73;7.33;;;;;;;4.40;76.71;99331.75;1745631;81;21018;-39
2022/12/28 11:22:26;;;;;;;27.70;7.47;;;;;;;4.33;75.88;99323.72;1747475;82;20916;-39
2022/12/28 11:24:52;;;;;;;16.62;7.10;;;;;;;4.49;76.72;99324.97;1740485;81;20944;-38
2022/12/28 11:27:22;;;;;;;15.55;7.20;;;;;;;4.47;75.83;99313.75;1733457;82;21496;-39
2022/12/28 11:29:51;;;;;;;17.50;7.42;;;;;;;4.48;75.58;99301.14;1746915;81;20972;-37
2022/12/28 11:32:25;;;;;;;17.73;9.03;;;;;;;4.52;75.68;99297.54;1741049;82;21038;-37
2022/12/28 11:34:53;;;;;;;18.85;8.48;;;;;;;4.57;75.83;99281.79;1745626;81;20996;-39
2022/12/28 11:37:19;;;;;;;33.53;14.73;;;;;;;4.57;76.36;99285.23;1741670;82;21417;-36
2022/12/28 11:39:47;;;;;;;15.90;7.47;;;;;;;4.55;75.54;99274.48;1754519;80;20972;-38
2022/12/28 11:42:37;;;;;;;16.48;8.53;;;;;;;4.59;75.28;99273.02;1746229;80;20972;-37
2022/12/28 11:45:18;;;;;;;18.30;7.22;;;;;;;4.62;75.88;99273.39;1723659;82;21031;-36
2022/12/28 11:47:44;;;;;;;13.85;6.50;;;;;;;4.60;75.19;99268.22;1745585;81;21500;-39
2022/12/28 11:50:38;;;;;;;13.72;7.28;;;;;;;4.47;74.42;99260.36;1751394;81;21476;-38
2022/12/28 11:53:12;;;;;;;17.57;7.05;;;;;;;4.54;74.98;99261.04;1738678;80;20991;-40
2022/12/28 11:56:06;;;;;;;11.38;6.47;;;;;;;4.55;74.41;99255.78;1747617;81;20995;-39
2022/12/28 11:58:44;;;;;;;10.88;6.28;;;;;;;4.57;74.98;99252.68;1756987;80;21026;-37
2022/12/28 12:01:33;;;;;;;;;;;;;;;4.70;75.19;99250.53;1749733;81;20979;-36
2022/12/28 12:04:05;;;;;;;14.78;7.60;;;;;;;4.80;74.47;99245.87;1759213;81;20146;-36
2022/12/28 12:06:48;;;;;;;13.25;7.03;;;;;;;4.83;74.03;99234.52;1769211;80;20995;-41
2022/12/28 12:09:24;;;;;;;17.70;9.00;;;;;;;4.81;74.10;99224.98;1760356;81;20975;-37
2022/12/28 12:11:57;;;;;;;10.82;5.17;;;;;;;4.91;74.36;99219.47;1760726;81;21010;-38
2022/12/28 12:14:39;;;;;;;13.88;5.97;;;;;;;4.91;73.32;99209.92;1758709;81;20967;-37
2022/12/28 12:17:34;;;;;;;14.78;6.28;;;;;;;4.99;73.86;99209.19;1745082;81;21007;-38
2022/12/28 12:20:20;;;;;;;24.15;9.75;;;;;;;4.99;71.96;99194.02;1756712;80;21011;-38
2022/12/28 12:22:51;;;;;;;13.60;6.28;;;;;;;5.03;72.33;99185.64;1760631;81;21007;-36